sensor_id;sensor_type;location;lat;lon;timestamp;temperature;humidity
23377;DHT22;14353;46.070;13.222;2023-11-21T00:00:19;20.30;46.40
23377;DHT22;14353;46.070;13.222;2023-11-21T00:02:46;20.30;46.40
23377;DHT22;14353;46.070;13.222;2023-11-21T00:05:13;20.20;46.40
23377;DHT22;14353;46.070;13.222;2023-11-21T00:07:42;20.20;46.40
23377;DHT22;14353;46.070;13.222;2023-11-21T00:10:09;20.20;46.50
23377;DHT22;14353;46.070;13.222;2023-11-21T00:12:36;20.20;46.50
23377;DHT22;14353;46.070;13.222;2023-11-21T00:15:02;20.20;46.50
23377;DHT22;14353;46.070;13.222;2023-11-21T00:17:28;20.20;46.60
23377;DHT22;14353;46.070;13.222;2023-11-21T00:19:54;20.20;46.60
23377;DHT22;14353;46.070;13.222;2023-11-21T00:22:19;20.20;46.60
23377;DHT22;14353;46.070;13.222;2023-11-21T00:24:46;20.20;46.60
23377;DHT22;14353;46.070;13.222;2023-11-21T00:27:12;20.20;46.60
23377;DHT22;14353;46.070;13.222;2023-11-21T00:29:38;20.20;46.70
23377;DHT22;14353;46.070;13.222;2023-11-21T00:32:05;20.10;46.60
23377;DHT22;14353;46.070;13.222;2023-11-21T00:34:31;20.10;46.60
23377;DHT22;14353;46.070;13.222;2023-11-21T00:36:57;20.10;46.70
23377;DHT22;14353;46.070;13.222;2023-11-21T00:39:23;20.10;46.70
23377;DHT22;14353;46.070;13.222;2023-11-21T00:41:49;20.10;46.70
23377;DHT22;14353;46.070;13.222;2023-11-21T00:44:15;20.10;46.80
23377;DHT22;14353;46.070;13.222;2023-11-21T00:46:41;20.10;46.80
23377;DHT22;14353;46.070;13.222;2023-11-21T00:49:07;20.10;46.70
23377;DHT22;14353;46.070;13.222;2023-11-21T00:51:33;20.10;46.80
23377;DHT22;14353;46.070;13.222;2023-11-21T00:53:59;20.10;46.70
23377;DHT22;14353;46.070;13.222;2023-11-21T00:56:25;20.10;46.70
23377;DHT22;14353;46.070;13.222;2023-11-21T00:58:51;20.10;46.80
23377;DHT22;14353;46.070;13.222;2023-11-21T01:01:18;20.10;46.90
23377;DHT22;14353;46.070;13.222;2023-11-21T01:03:50;20.10;46.90
23377;DHT22;14353;46.070;13.222;2023-11-21T01:06:16;20.00;46.80
23377;DHT22;14353;46.070;13.222;2023-11-21T01:08:43;20.00;46.80
23377;DHT22;14353;46.070;13.222;2023-11-21T01:11:09;20.00;46.90
23377;DHT22;14353;46.070;13.222;2023-11-21T01:13:37;20.00;46.90
23377;DHT22;14353;46.070;13.222;2023-11-21T01:16:05;20.00;46.90
23377;DHT22;14353;46.070;13.222;2023-11-21T01:18:32;20.00;47.00
23377;DHT22;14353;46.070;13.222;2023-11-21T01:20:58;20.00;47.00
23377;DHT22;14353;46.070;13.222;2023-11-21T01:23:26;19.90;46.90
23377;DHT22;14353;46.070;13.222;2023-11-21T01:25:52;20.00;47.00
23377;DHT22;14353;46.070;13.222;2023-11-21T01:28:18;20.00;47.00
23377;DHT22;14353;46.070;13.222;2023-11-21T01:30:45;19.90;46.90
23377;DHT22;14353;46.070;13.222;2023-11-21T01:33:11;19.90;47.00
23377;DHT22;14353;46.070;13.222;2023-11-21T01:35:37;19.90;47.00
23377;DHT22;14353;46.070;13.222;2023-11-21T01:38:02;19.90;47.00
23377;DHT22;14353;46.070;13.222;2023-11-21T01:40:29;19.90;47.00
23377;DHT22;14353;46.070;13.222;2023-11-21T01:42:56;19.90;47.00
23377;DHT22;14353;46.070;13.222;2023-11-21T01:45:22;19.90;47.00
23377;DHT22;14353;46.070;13.222;2023-11-21T01:47:50;19.90;47.00
23377;DHT22;14353;46.070;13.222;2023-11-21T01:50:16;19.90;47.00
23377;DHT22;14353;46.070;13.222;2023-11-21T01:52:45;19.90;47.00
23377;DHT22;14353;46.070;13.222;2023-11-21T01:55:11;19.90;47.00
23377;DHT22;14353;46.070;13.222;2023-11-21T01:57:40;19.90;47.00
23377;DHT22;14353;46.070;13.222;2023-11-21T02:00:07;19.90;47.10
23377;DHT22;14353;46.070;13.222;2023-11-21T02:02:43;19.90;47.10
23377;DHT22;14353;46.070;13.222;2023-11-21T02:05:10;19.90;47.10
23377;DHT22;14353;46.070;13.222;2023-11-21T02:07:41;19.90;47.00
23377;DHT22;14353;46.070;13.222;2023-11-21T02:10:08;19.90;47.00
23377;DHT22;14353;46.070;13.222;2023-11-21T02:12:35;19.90;47.00
23377;DHT22;14353;46.070;13.222;2023-11-21T02:15:04;19.90;47.00
23377;DHT22;14353;46.070;13.222;2023-11-21T02:17:43;19.90;47.00
23377;DHT22;14353;46.070;13.222;2023-11-21T02:20:13;19.90;47.00
23377;DHT22;14353;46.070;13.222;2023-11-21T02:22:53;19.80;47.00
23377;DHT22;14353;46.070;13.222;2023-11-21T02:25:32;19.90;47.00
23377;DHT22;14353;46.070;13.222;2023-11-21T02:28:00;19.80;46.90
23377;DHT22;14353;46.070;13.222;2023-11-21T02:30:26;19.80;46.90
23377;DHT22;14353;46.070;13.222;2023-11-21T02:32:57;19.80;46.90
23377;DHT22;14353;46.070;13.222;2023-11-21T02:35:23;19.90;47.00
23377;DHT22;14353;46.070;13.222;2023-11-21T02:37:51;19.80;46.90
23377;DHT22;14353;46.070;13.222;2023-11-21T02:40:17;19.80;46.90
23377;DHT22;14353;46.070;13.222;2023-11-21T02:42:50;19.90;47.00
23377;DHT22;14353;46.070;13.222;2023-11-21T02:45:18;19.80;46.90
23377;DHT22;14353;46.070;13.222;2023-11-21T02:47:46;19.90;47.00
23377;DHT22;14353;46.070;13.222;2023-11-21T02:50:13;19.80;46.90
23377;DHT22;14353;46.070;13.222;2023-11-21T02:52:39;19.80;46.90
23377;DHT22;14353;46.070;13.222;2023-11-21T02:55:07;19.80;46.90
23377;DHT22;14353;46.070;13.222;2023-11-21T02:57:33;19.80;46.90
23377;DHT22;14353;46.070;13.222;2023-11-21T02:59:59;19.80;46.90
23377;DHT22;14353;46.070;13.222;2023-11-21T03:02:28;19.80;46.90
23377;DHT22;14353;46.070;13.222;2023-11-21T03:04:53;19.90;47.00
23377;DHT22;14353;46.070;13.222;2023-11-21T03:07:19;19.80;46.90
23377;DHT22;14353;46.070;13.222;2023-11-21T03:09:46;19.90;47.00
23377;DHT22;14353;46.070;13.222;2023-11-21T03:12:11;19.80;46.90
23377;DHT22;14353;46.070;13.222;2023-11-21T03:14:41;19.80;46.90
23377;DHT22;14353;46.070;13.222;2023-11-21T03:17:07;19.80;47.00
23377;DHT22;14353;46.070;13.222;2023-11-21T03:19:32;19.80;46.90
23377;DHT22;14353;46.070;13.222;2023-11-21T03:21:58;19.80;47.00
23377;DHT22;14353;46.070;13.222;2023-11-21T03:24:24;19.80;47.00
23377;DHT22;14353;46.070;13.222;2023-11-21T03:26:50;19.80;46.90
23377;DHT22;14353;46.070;13.222;2023-11-21T03:29:16;19.80;46.90
23377;DHT22;14353;46.070;13.222;2023-11-21T03:31:42;19.80;47.00
23377;DHT22;14353;46.070;13.222;2023-11-21T03:34:15;19.80;46.90
23377;DHT22;14353;46.070;13.222;2023-11-21T03:36:41;19.80;46.90
23377;DHT22;14353;46.070;13.222;2023-11-21T03:39:07;19.90;46.90
23377;DHT22;14353;46.070;13.222;2023-11-21T03:41:32;19.80;46.80
23377;DHT22;14353;46.070;13.222;2023-11-21T03:43:59;19.80;46.80
23377;DHT22;14353;46.070;13.222;2023-11-21T03:46:25;19.80;46.90
23377;DHT22;14353;46.070;13.222;2023-11-21T03:48:51;19.80;46.90
23377;DHT22;14353;46.070;13.222;2023-11-21T03:51:17;19.80;46.90
23377;DHT22;14353;46.070;13.222;2023-11-21T03:53:42;19.80;46.90
23377;DHT22;14353;46.070;13.222;2023-11-21T03:56:08;19.80;46.90
23377;DHT22;14353;46.070;13.222;2023-11-21T03:58:34;19.80;46.80
23377;DHT22;14353;46.070;13.222;2023-11-21T04:01:00;19.80;46.80
23377;DHT22;14353;46.070;13.222;2023-11-21T04:03:25;19.90;46.80
23377;DHT22;14353;46.070;13.222;2023-11-21T04:05:51;19.80;46.80
23377;DHT22;14353;46.070;13.222;2023-11-21T04:08:17;19.90;46.80
23377;DHT22;14353;46.070;13.222;2023-11-21T04:10:42;19.90;46.90
23377;DHT22;14353;46.070;13.222;2023-11-21T04:13:08;19.80;46.80
23377;DHT22;14353;46.070;13.222;2023-11-21T04:15:34;19.90;46.80
23377;DHT22;14353;46.070;13.222;2023-11-21T04:17:59;19.90;46.80
23377;DHT22;14353;46.070;13.222;2023-11-21T04:20:25;19.90;46.60
23377;DHT22;14353;46.070;13.222;2023-11-21T04:22:52;19.90;46.60
23377;DHT22;14353;46.070;13.222;2023-11-21T04:25:17;19.90;46.60
23377;DHT22;14353;46.070;13.222;2023-11-21T04:27:44;20.00;46.50
23377;DHT22;14353;46.070;13.222;2023-11-21T04:30:14;20.00;46.40
23377;DHT22;14353;46.070;13.222;2023-11-21T04:32:39;20.10;46.30
23377;DHT22;14353;46.070;13.222;2023-11-21T04:35:06;20.10;46.20
23377;DHT22;14353;46.070;13.222;2023-11-21T04:37:31;20.10;46.20
23377;DHT22;14353;46.070;13.222;2023-11-21T04:39:57;20.10;46.20
23377;DHT22;14353;46.070;13.222;2023-11-21T04:42:23;20.10;46.20
23377;DHT22;14353;46.070;13.222;2023-11-21T04:44:49;20.10;46.20
23377;DHT22;14353;46.070;13.222;2023-11-21T04:47:15;20.10;46.20
23377;DHT22;14353;46.070;13.222;2023-11-21T04:49:43;20.10;46.20
23377;DHT22;14353;46.070;13.222;2023-11-21T04:52:12;20.10;46.20
23377;DHT22;14353;46.070;13.222;2023-11-21T04:54:38;20.10;46.10
23377;DHT22;14353;46.070;13.222;2023-11-21T04:57:05;20.10;46.20
23377;DHT22;14353;46.070;13.222;2023-11-21T04:59:33;20.10;46.20
23377;DHT22;14353;46.070;13.222;2023-11-21T05:01:59;20.10;46.10
23377;DHT22;14353;46.070;13.222;2023-11-21T05:04:25;20.10;46.10
23377;DHT22;14353;46.070;13.222;2023-11-21T05:06:51;20.10;46.10
23377;DHT22;14353;46.070;13.222;2023-11-21T05:09:17;20.10;46.10
23377;DHT22;14353;46.070;13.222;2023-11-21T05:11:43;20.10;46.00
23377;DHT22;14353;46.070;13.222;2023-11-21T05:14:09;20.20;46.10
23377;DHT22;14353;46.070;13.222;2023-11-21T05:16:34;20.20;46.00
23377;DHT22;14353;46.070;13.222;2023-11-21T05:19:01;20.10;45.90
23377;DHT22;14353;46.070;13.222;2023-11-21T05:21:27;20.20;45.90
23377;DHT22;14353;46.070;13.222;2023-11-21T05:23:58;20.20;45.90
23377;DHT22;14353;46.070;13.222;2023-11-21T05:26:24;20.20;45.90
23377;DHT22;14353;46.070;13.222;2023-11-21T05:28:49;20.20;45.90
23377;DHT22;14353;46.070;13.222;2023-11-21T05:31:18;20.20;45.80
23377;DHT22;14353;46.070;13.222;2023-11-21T05:33:44;20.20;45.80
23377;DHT22;14353;46.070;13.222;2023-11-21T05:36:10;20.30;45.80
23377;DHT22;14353;46.070;13.222;2023-11-21T05:38:36;20.30;45.80
23377;DHT22;14353;46.070;13.222;2023-11-21T05:41:02;20.30;45.70
23377;DHT22;14353;46.070;13.222;2023-11-21T05:43:29;20.30;45.70
23377;DHT22;14353;46.070;13.222;2023-11-21T05:45:56;20.30;45.70
23377;DHT22;14353;46.070;13.222;2023-11-21T05:48:22;20.30;45.70
23377;DHT22;14353;46.070;13.222;2023-11-21T05:50:48;20.30;45.60
23377;DHT22;14353;46.070;13.222;2023-11-21T05:53:15;20.30;45.60
23377;DHT22;14353;46.070;13.222;2023-11-21T05:55:41;20.30;45.60
23377;DHT22;14353;46.070;13.222;2023-11-21T05:58:07;20.30;45.60
23377;DHT22;14353;46.070;13.222;2023-11-21T06:00:33;20.30;45.90
23377;DHT22;14353;46.070;13.222;2023-11-21T06:02:59;20.40;45.60
23377;DHT22;14353;46.070;13.222;2023-11-21T06:05:26;20.40;45.60
23377;DHT22;14353;46.070;13.222;2023-11-21T06:07:53;20.40;45.50
23377;DHT22;14353;46.070;13.222;2023-11-21T06:10:22;20.40;45.60
23377;DHT22;14353;46.070;13.222;2023-11-21T06:12:49;20.40;45.50
23377;DHT22;14353;46.070;13.222;2023-11-21T06:15:15;20.40;45.50
23377;DHT22;14353;46.070;13.222;2023-11-21T06:17:42;20.40;45.50
23377;DHT22;14353;46.070;13.222;2023-11-21T06:20:10;20.40;45.50
23377;DHT22;14353;46.070;13.222;2023-11-21T06:22:41;20.40;45.40
23377;DHT22;14353;46.070;13.222;2023-11-21T06:25:08;20.40;45.50
23377;DHT22;14353;46.070;13.222;2023-11-21T06:27:42;20.40;45.50
23377;DHT22;14353;46.070;13.222;2023-11-21T06:30:10;20.40;45.40
23377;DHT22;14353;46.070;13.222;2023-11-21T06:32:37;20.40;45.40
23377;DHT22;14353;46.070;13.222;2023-11-21T06:35:04;20.40;45.40
23377;DHT22;14353;46.070;13.222;2023-11-21T06:37:31;20.50;45.50
23377;DHT22;14353;46.070;13.222;2023-11-21T06:39:58;20.40;45.40
23377;DHT22;14353;46.070;13.222;2023-11-21T06:42:24;20.50;45.40
23377;DHT22;14353;46.070;13.222;2023-11-21T06:44:50;20.50;45.40
23377;DHT22;14353;46.070;13.222;2023-11-21T06:47:22;20.50;45.40
23377;DHT22;14353;46.070;13.222;2023-11-21T06:49:52;20.50;45.30
23377;DHT22;14353;46.070;13.222;2023-11-21T06:52:18;20.50;45.30
23377;DHT22;14353;46.070;13.222;2023-11-21T06:54:44;20.50;45.30
23377;DHT22;14353;46.070;13.222;2023-11-21T06:57:11;20.50;45.30
23377;DHT22;14353;46.070;13.222;2023-11-21T06:59:37;20.50;45.90
23377;DHT22;14353;46.070;13.222;2023-11-21T07:02:03;20.50;45.30
23377;DHT22;14353;46.070;13.222;2023-11-21T07:04:30;20.50;45.20
23377;DHT22;14353;46.070;13.222;2023-11-21T07:06:57;20.60;45.20
23377;DHT22;14353;46.070;13.222;2023-11-21T07:09:31;20.60;45.20
23377;DHT22;14353;46.070;13.222;2023-11-21T07:11:58;20.60;45.20
23377;DHT22;14353;46.070;13.222;2023-11-21T07:14:26;20.60;45.10
23377;DHT22;14353;46.070;13.222;2023-11-21T07:16:54;20.60;45.10
23377;DHT22;14353;46.070;13.222;2023-11-21T07:19:27;20.60;45.10
23377;DHT22;14353;46.070;13.222;2023-11-21T07:21:55;20.70;45.10
23377;DHT22;14353;46.070;13.222;2023-11-21T07:24:21;20.70;45.10
23377;DHT22;14353;46.070;13.222;2023-11-21T07:26:48;20.70;45.10
23377;DHT22;14353;46.070;13.222;2023-11-21T07:29:14;20.70;45.30
23377;DHT22;14353;46.070;13.222;2023-11-21T07:31:39;20.70;45.20
23377;DHT22;14353;46.070;13.222;2023-11-21T07:34:06;20.80;45.60
23377;DHT22;14353;46.070;13.222;2023-11-21T07:36:33;20.80;45.90
23377;DHT22;14353;46.070;13.222;2023-11-21T07:38:59;20.80;45.80
23377;DHT22;14353;46.070;13.222;2023-11-21T07:41:25;20.80;46.50
23377;DHT22;14353;46.070;13.222;2023-11-21T07:43:51;20.90;46.10
23377;DHT22;14353;46.070;13.222;2023-11-21T07:46:17;20.90;45.90
23377;DHT22;14353;46.070;13.222;2023-11-21T07:48:43;20.90;46.50
23377;DHT22;14353;46.070;13.222;2023-11-21T07:51:10;20.90;46.10
23377;DHT22;14353;46.070;13.222;2023-11-21T07:53:36;21.00;46.40
23377;DHT22;14353;46.070;13.222;2023-11-21T07:56:06;21.00;46.50
23377;DHT22;14353;46.070;13.222;2023-11-21T07:58:33;21.00;45.90
23377;DHT22;14353;46.070;13.222;2023-11-21T08:01:00;21.10;46.10
23377;DHT22;14353;46.070;13.222;2023-11-21T08:03:26;21.10;46.70
23377;DHT22;14353;46.070;13.222;2023-11-21T08:05:52;21.10;46.30
23377;DHT22;14353;46.070;13.222;2023-11-21T08:08:18;21.10;46.10
23377;DHT22;14353;46.070;13.222;2023-11-21T08:10:45;21.10;46.40
23377;DHT22;14353;46.070;13.222;2023-11-21T08:13:30;21.20;46.10
23377;DHT22;14353;46.070;13.222;2023-11-21T08:15:57;21.20;47.10
23377;DHT22;14353;46.070;13.222;2023-11-21T08:18:27;21.20;47.70
23377;DHT22;14353;46.070;13.222;2023-11-21T08:20:54;21.20;46.90
23377;DHT22;14353;46.070;13.222;2023-11-21T08:23:20;21.20;46.70
23377;DHT22;14353;46.070;13.222;2023-11-21T08:25:46;21.30;46.80
23377;DHT22;14353;46.070;13.222;2023-11-21T08:28:13;21.30;46.80
23377;DHT22;14353;46.070;13.222;2023-11-21T08:30:41;21.30;46.90
23377;DHT22;14353;46.070;13.222;2023-11-21T08:33:07;21.30;47.30
23377;DHT22;14353;46.070;13.222;2023-11-21T08:35:34;21.30;46.80
23377;DHT22;14353;46.070;13.222;2023-11-21T08:38:03;21.30;47.80
23377;DHT22;14353;46.070;13.222;2023-11-21T08:40:29;21.30;47.10
23377;DHT22;14353;46.070;13.222;2023-11-21T08:42:55;21.30;47.00
23377;DHT22;14353;46.070;13.222;2023-11-21T08:45:24;21.40;46.80
23377;DHT22;14353;46.070;13.222;2023-11-21T08:47:51;21.40;46.70
23377;DHT22;14353;46.070;13.222;2023-11-21T08:50:16;21.40;46.50
23377;DHT22;14353;46.070;13.222;2023-11-21T08:52:43;21.40;46.50
23377;DHT22;14353;46.070;13.222;2023-11-21T08:55:09;21.40;46.40
23377;DHT22;14353;46.070;13.222;2023-11-21T08:57:38;21.40;46.40
23377;DHT22;14353;46.070;13.222;2023-11-21T09:00:10;21.40;46.30
23377;DHT22;14353;46.070;13.222;2023-11-21T09:02:40;21.40;46.30
23377;DHT22;14353;46.070;13.222;2023-11-21T09:05:10;21.30;46.40
23377;DHT22;14353;46.070;13.222;2023-11-21T09:07:39;21.30;46.30
23377;DHT22;14353;46.070;13.222;2023-11-21T09:10:08;21.30;46.40
23377;DHT22;14353;46.070;13.222;2023-11-21T09:12:37;21.30;46.70
23377;DHT22;14353;46.070;13.222;2023-11-21T09:15:08;21.30;47.10
23377;DHT22;14353;46.070;13.222;2023-11-21T09:17:35;21.30;47.50
23377;DHT22;14353;46.070;13.222;2023-11-21T09:20:11;21.40;48.80
23377;DHT22;14353;46.070;13.222;2023-11-21T09:22:37;21.40;48.60
23377;DHT22;14353;46.070;13.222;2023-11-21T09:25:04;21.40;48.80
23377;DHT22;14353;46.070;13.222;2023-11-21T09:27:35;21.40;48.30
23377;DHT22;14353;46.070;13.222;2023-11-21T09:30:04;21.40;47.90
23377;DHT22;14353;46.070;13.222;2023-11-21T09:32:31;21.40;48.00
23377;DHT22;14353;46.070;13.222;2023-11-21T09:34:57;21.40;47.80
23377;DHT22;14353;46.070;13.222;2023-11-21T09:37:24;21.40;47.80
23377;DHT22;14353;46.070;13.222;2023-11-21T09:39:50;21.40;47.70
23377;DHT22;14353;46.070;13.222;2023-11-21T09:42:25;21.40;47.70
23377;DHT22;14353;46.070;13.222;2023-11-21T09:45:09;21.50;48.00
23377;DHT22;14353;46.070;13.222;2023-11-21T09:47:39;21.40;47.80
23377;DHT22;14353;46.070;13.222;2023-11-21T09:50:05;21.50;47.90
23377;DHT22;14353;46.070;13.222;2023-11-21T09:52:49;21.50;47.80
23377;DHT22;14353;46.070;13.222;2023-11-21T09:55:17;21.50;47.80
23377;DHT22;14353;46.070;13.222;2023-11-21T09:57:45;21.50;47.70
23377;DHT22;14353;46.070;13.222;2023-11-21T10:00:13;21.50;47.70
23377;DHT22;14353;46.070;13.222;2023-11-21T10:02:43;21.50;47.70
23377;DHT22;14353;46.070;13.222;2023-11-21T10:05:09;21.50;47.50
23377;DHT22;14353;46.070;13.222;2023-11-21T10:07:35;21.40;47.60
23377;DHT22;14353;46.070;13.222;2023-11-21T10:10:02;21.40;47.60
23377;DHT22;14353;46.070;13.222;2023-11-21T10:12:28;21.40;47.60
23377;DHT22;14353;46.070;13.222;2023-11-21T10:14:57;21.40;47.60
23377;DHT22;14353;46.070;13.222;2023-11-21T10:17:25;21.40;47.60
23377;DHT22;14353;46.070;13.222;2023-11-21T10:19:57;21.40;47.60
23377;DHT22;14353;46.070;13.222;2023-11-21T10:22:24;21.40;47.70
23377;DHT22;14353;46.070;13.222;2023-11-21T10:24:49;21.40;47.50
23377;DHT22;14353;46.070;13.222;2023-11-21T10:27:15;21.40;47.60
23377;DHT22;14353;46.070;13.222;2023-11-21T10:29:41;21.40;47.70
23377;DHT22;14353;46.070;13.222;2023-11-21T10:32:07;21.30;47.50
23377;DHT22;14353;46.070;13.222;2023-11-21T10:34:34;21.30;47.50
23377;DHT22;14353;46.070;13.222;2023-11-21T10:37:11;21.30;47.50
23377;DHT22;14353;46.070;13.222;2023-11-21T10:39:38;21.30;47.50
23377;DHT22;14353;46.070;13.222;2023-11-21T10:42:04;21.30;47.50
23377;DHT22;14353;46.070;13.222;2023-11-21T10:44:30;21.30;47.40
23377;DHT22;14353;46.070;13.222;2023-11-21T10:46:57;21.40;47.50
23377;DHT22;14353;46.070;13.222;2023-11-21T10:49:25;21.40;47.70
23377;DHT22;14353;46.070;13.222;2023-11-21T10:51:55;21.40;47.70
23377;DHT22;14353;46.070;13.222;2023-11-21T10:54:22;21.40;47.70
23377;DHT22;14353;46.070;13.222;2023-11-21T10:56:59;21.40;47.60
23377;DHT22;14353;46.070;13.222;2023-11-21T10:59:31;21.40;47.80
23377;DHT22;14353;46.070;13.222;2023-11-21T11:01:58;21.40;47.60
23377;DHT22;14353;46.070;13.222;2023-11-21T11:04:27;21.40;47.70
23377;DHT22;14353;46.070;13.222;2023-11-21T11:07:02;21.50;47.80
23377;DHT22;14353;46.070;13.222;2023-11-21T11:09:31;21.40;48.00
23377;DHT22;14353;46.070;13.222;2023-11-21T11:11:59;21.50;48.20
23377;DHT22;14353;46.070;13.222;2023-11-21T11:14:27;21.50;48.20
23377;DHT22;14353;46.070;13.222;2023-11-21T11:16:54;21.50;48.30
23377;DHT22;14353;46.070;13.222;2023-11-21T11:19:28;21.40;48.30
23377;DHT22;14353;46.070;13.222;2023-11-21T11:30:33;21.40;48.00
23377;DHT22;14353;46.070;13.222;2023-11-21T11:33:15;21.40;48.10
23377;DHT22;14353;46.070;13.222;2023-11-21T11:38:13;21.40;48.20
23377;DHT22;14353;46.070;13.222;2023-11-21T11:40:45;21.40;48.90
23377;DHT22;14353;46.070;13.222;2023-11-21T11:43:11;21.40;48.20
23377;DHT22;14353;46.070;13.222;2023-11-21T11:45:37;21.40;48.30
23377;DHT22;14353;46.070;13.222;2023-11-21T11:48:11;21.40;48.30
23377;DHT22;14353;46.070;13.222;2023-11-21T11:51:00;21.40;48.30
23377;DHT22;14353;46.070;13.222;2023-11-21T11:53:36;21.50;48.40
23377;DHT22;14353;46.070;13.222;2023-11-21T11:56:29;21.50;48.60
23377;DHT22;14353;46.070;13.222;2023-11-21T11:59:04;21.50;48.50
23377;DHT22;14353;46.070;13.222;2023-11-21T12:01:34;21.60;48.60
23377;DHT22;14353;46.070;13.222;2023-11-21T12:06:51;21.80;48.20
23377;DHT22;14353;46.070;13.222;2023-11-21T12:09:21;21.80;48.20
23377;DHT22;14353;46.070;13.222;2023-11-21T12:11:49;21.80;48.20
23377;DHT22;14353;46.070;13.222;2023-11-21T12:14:15;21.80;48.20
23377;DHT22;14353;46.070;13.222;2023-11-21T12:16:42;21.80;48.20
23377;DHT22;14353;46.070;13.222;2023-11-21T12:19:12;21.70;48.20
23377;DHT22;14353;46.070;13.222;2023-11-21T12:21:38;21.70;48.20
23377;DHT22;14353;46.070;13.222;2023-11-21T12:24:06;21.70;48.30
23377;DHT22;14353;46.070;13.222;2023-11-21T12:26:35;21.70;48.10
23377;DHT22;14353;46.070;13.222;2023-11-21T12:29:02;21.60;48.10
23377;DHT22;14353;46.070;13.222;2023-11-21T12:31:30;21.60;47.80
23377;DHT22;14353;46.070;13.222;2023-11-21T12:33:56;21.50;47.00
23377;DHT22;14353;46.070;13.222;2023-11-21T12:36:23;21.40;46.50
23377;DHT22;14353;46.070;13.222;2023-11-21T12:38:49;21.40;46.50
23377;DHT22;14353;46.070;13.222;2023-11-21T12:41:16;21.40;46.50
23377;DHT22;14353;46.070;13.222;2023-11-21T12:43:49;21.30;46.70
23377;DHT22;14353;46.070;13.222;2023-11-21T12:46:15;21.30;46.50
23377;DHT22;14353;46.070;13.222;2023-11-21T12:48:44;21.30;46.30
23377;DHT22;14353;46.070;13.222;2023-11-21T12:51:11;21.30;46.30
23377;DHT22;14353;46.070;13.222;2023-11-21T12:53:38;21.20;46.40
23377;DHT22;14353;46.070;13.222;2023-11-21T12:56:11;21.20;46.50
23377;DHT22;14353;46.070;13.222;2023-11-21T12:58:37;21.20;46.50
23377;DHT22;14353;46.070;13.222;2023-11-21T13:01:07;21.20;46.40
23377;DHT22;14353;46.070;13.222;2023-11-21T13:03:40;21.20;46.50
23377;DHT22;14353;46.070;13.222;2023-11-21T13:06:08;21.20;46.40
23377;DHT22;14353;46.070;13.222;2023-11-21T13:08:34;21.20;46.00
23377;DHT22;14353;46.070;13.222;2023-11-21T13:11:00;21.20;46.10
23377;DHT22;14353;46.070;13.222;2023-11-21T13:13:28;21.20;46.20
23377;DHT22;14353;46.070;13.222;2023-11-21T13:15:57;21.20;46.30
23377;DHT22;14353;46.070;13.222;2023-11-21T13:18:32;21.20;46.30
23377;DHT22;14353;46.070;13.222;2023-11-21T13:21:01;21.20;46.40
23377;DHT22;14353;46.070;13.222;2023-11-21T13:23:28;21.20;46.40
23377;DHT22;14353;46.070;13.222;2023-11-21T13:25:55;21.20;46.50
23377;DHT22;14353;46.070;13.222;2023-11-21T13:28:21;21.10;46.50
23377;DHT22;14353;46.070;13.222;2023-11-21T13:30:49;21.20;46.60
23377;DHT22;14353;46.070;13.222;2023-11-21T13:33:18;21.10;46.70
23377;DHT22;14353;46.070;13.222;2023-11-21T13:35:47;21.20;46.80
23377;DHT22;14353;46.070;13.222;2023-11-21T13:38:16;21.20;46.80
23377;DHT22;14353;46.070;13.222;2023-11-21T13:40:55;21.10;46.80
23377;DHT22;14353;46.070;13.222;2023-11-21T13:43:23;21.10;46.80
23377;DHT22;14353;46.070;13.222;2023-11-21T13:45:51;21.10;46.80
23377;DHT22;14353;46.070;13.222;2023-11-21T13:48:25;21.10;46.80
23377;DHT22;14353;46.070;13.222;2023-11-21T13:50:57;21.10;46.80
23377;DHT22;14353;46.070;13.222;2023-11-21T13:53:36;21.10;46.90
23377;DHT22;14353;46.070;13.222;2023-11-21T13:56:03;21.10;46.80
23377;DHT22;14353;46.070;13.222;2023-11-21T13:58:29;21.10;46.90
23377;DHT22;14353;46.070;13.222;2023-11-21T14:01:18;21.10;46.80
23377;DHT22;14353;46.070;13.222;2023-11-21T14:03:56;21.10;46.90
23377;DHT22;14353;46.070;13.222;2023-11-21T14:06:28;21.10;47.00
23377;DHT22;14353;46.070;13.222;2023-11-21T14:09:00;21.10;47.20
23377;DHT22;14353;46.070;13.222;2023-11-21T14:11:30;21.10;47.20
23377;DHT22;14353;46.070;13.222;2023-11-21T14:13:56;21.10;47.30
23377;DHT22;14353;46.070;13.222;2023-11-21T14:16:24;21.10;47.30
23377;DHT22;14353;46.070;13.222;2023-11-21T14:18:50;21.10;47.30
23377;DHT22;14353;46.070;13.222;2023-11-21T14:21:26;21.10;47.40
23377;DHT22;14353;46.070;13.222;2023-11-21T14:23:52;21.10;47.40
23377;DHT22;14353;46.070;13.222;2023-11-21T14:26:20;21.10;47.30
23377;DHT22;14353;46.070;13.222;2023-11-21T14:28:46;21.00;47.30
23377;DHT22;14353;46.070;13.222;2023-11-21T14:31:14;21.00;47.30
23377;DHT22;14353;46.070;13.222;2023-11-21T14:33:43;21.00;47.30
23377;DHT22;14353;46.070;13.222;2023-11-21T14:36:09;21.00;47.30
23377;DHT22;14353;46.070;13.222;2023-11-21T14:38:36;21.00;47.30
23377;DHT22;14353;46.070;13.222;2023-11-21T14:41:07;21.00;47.30
23377;DHT22;14353;46.070;13.222;2023-11-21T14:43:35;21.00;47.30
23377;DHT22;14353;46.070;13.222;2023-11-21T14:46:02;21.00;47.30
23377;DHT22;14353;46.070;13.222;2023-11-21T14:48:29;21.00;47.20
23377;DHT22;14353;46.070;13.222;2023-11-21T14:51:20;21.00;47.30
23377;DHT22;14353;46.070;13.222;2023-11-21T14:54:01;21.00;47.30
23377;DHT22;14353;46.070;13.222;2023-11-21T14:56:35;21.00;47.20
23377;DHT22;14353;46.070;13.222;2023-11-21T14:59:03;21.00;47.20
23377;DHT22;14353;46.070;13.222;2023-11-21T15:01:38;21.00;47.20
23377;DHT22;14353;46.070;13.222;2023-11-21T15:04:21;21.00;47.20
23377;DHT22;14353;46.070;13.222;2023-11-21T15:07:04;21.00;47.20
23377;DHT22;14353;46.070;13.222;2023-11-21T15:09:30;21.00;47.80
23377;DHT22;14353;46.070;13.222;2023-11-21T15:12:07;20.90;47.10
23377;DHT22;14353;46.070;13.222;2023-11-21T15:14:46;21.00;47.20
23377;DHT22;14353;46.070;13.222;2023-11-21T15:17:14;20.90;47.10
23377;DHT22;14353;46.070;13.222;2023-11-21T15:19:56;21.00;47.10
23377;DHT22;14353;46.070;13.222;2023-11-21T15:22:22;20.90;47.10
23377;DHT22;14353;46.070;13.222;2023-11-21T15:24:47;21.00;47.10
23377;DHT22;14353;46.070;13.222;2023-11-21T15:27:15;20.90;47.10
23377;DHT22;14353;46.070;13.222;2023-11-21T15:29:44;20.90;47.10
23377;DHT22;14353;46.070;13.222;2023-11-21T15:32:10;20.90;47.10
23377;DHT22;14353;46.070;13.222;2023-11-21T15:34:39;20.90;47.00